createdAt,value
2023-04-25T00:00:49.468Z,7.65
2023-04-25T00:01:49.244Z,7.64
2023-04-25T00:02:49.684Z,7.63
2023-04-25T00:03:49.742Z,7.62
2023-04-25T00:04:49.493Z,7.62
2023-04-25T00:05:49.175Z,7.60
2023-04-25T00:06:49.633Z,7.59
2023-04-25T00:07:49.003Z,7.58
2023-04-25T00:08:49.022Z,7.58
2023-04-25T00:09:49.304Z,7.58
2023-04-25T00:10:49.002Z,7.58
2023-04-25T00:11:49.593Z,7.57
2023-04-25T00:12:49.648Z,7.57
2023-04-25T00:13:49.835Z,7.56
2023-04-25T00:14:48.924Z,7.55
2023-04-25T00:15:48.957Z,7.54
2023-04-25T00:16:48.916Z,7.54
2023-04-25T00:17:49.667Z,7.53
2023-04-25T00:18:49.326Z,7.53
2023-04-25T00:19:48.868Z,7.53
2023-04-25T00:20:48.859Z,7.52
2023-04-25T00:21:48.928Z,7.52
2023-04-25T00:22:48.860Z,7.51
2023-04-25T00:23:49.092Z,7.50
2023-04-25T00:24:49.652Z,7.49
2023-04-25T00:25:49.656Z,7.47
2023-04-25T00:26:49.024Z,7.46
2023-04-25T00:27:49.639Z,7.45
2023-04-25T00:28:49.651Z,7.43
2023-04-25T00:29:49.589Z,7.40
2023-04-25T00:30:49.212Z,7.38
2023-04-25T00:31:48.766Z,7.35
2023-04-25T00:32:49.745Z,7.31
2023-04-25T00:33:49.093Z,7.28
2023-04-25T00:34:48.714Z,7.23
2023-04-25T00:35:48.677Z,7.18
2023-04-25T00:36:48.678Z,7.14
2023-04-25T00:37:48.653Z,7.09
2023-04-25T00:38:48.687Z,7.05
2023-04-25T00:39:48.660Z,7.00
2023-04-25T00:40:48.659Z,6.97
2023-04-25T00:41:48.653Z,6.94
2023-04-25T00:42:48.663Z,6.92
2023-04-25T00:43:48.864Z,6.90
2023-04-25T00:44:48.599Z,6.88
2023-04-25T00:45:48.655Z,6.86
2023-04-25T00:46:48.601Z,6.85
2023-04-25T00:47:48.566Z,6.83
2023-04-25T00:48:48.669Z,6.82
2023-04-25T00:49:48.671Z,6.80
2023-04-25T00:50:48.510Z,6.78
2023-04-25T00:51:48.662Z,6.76
2023-04-25T00:52:48.690Z,6.74
2023-04-25T00:53:48.939Z,6.72
2023-04-25T00:54:48.466Z,6.70
2023-04-25T00:55:48.662Z,6.67
2023-04-25T00:56:48.440Z,6.65
2023-04-25T00:57:48.669Z,6.62
2023-04-25T00:58:48.676Z,6.59
2023-04-25T00:59:48.382Z,6.57
2023-04-25T01:00:48.701Z,6.54
2023-04-25T01:01:48.725Z,6.51
2023-04-25T01:02:48.489Z,6.48
2023-04-25T01:03:48.488Z,6.47
2023-04-25T01:04:48.677Z,6.45
2023-04-25T01:05:48.677Z,6.44
2023-04-25T01:06:48.467Z,6.42
2023-04-25T01:07:48.678Z,6.40
2023-04-25T01:08:48.304Z,6.38
2023-04-25T01:09:48.418Z,6.37
2023-04-25T01:10:48.339Z,6.36
2023-04-25T01:11:48.269Z,6.36
2023-04-25T01:12:48.694Z,6.36
2023-04-25T01:13:49.155Z,6.36
2023-04-25T01:14:48.676Z,6.36
2023-04-25T01:15:48.202Z,6.37
2023-04-25T01:16:48.246Z,6.37
2023-04-25T01:17:48.249Z,6.36
2023-04-25T01:18:48.173Z,6.34
2023-04-25T01:19:48.164Z,6.31
2023-04-25T01:20:48.201Z,6.28
2023-04-25T01:21:48.192Z,6.26
2023-04-25T01:22:48.128Z,6.25
2023-04-25T01:23:48.291Z,6.24
2023-04-25T01:24:48.103Z,6.23
2023-04-25T01:25:48.085Z,6.23
2023-04-25T01:26:48.080Z,6.22
2023-04-25T01:27:48.078Z,6.21
2023-04-25T01:28:48.089Z,6.20
2023-04-25T01:29:48.077Z,6.19
2023-04-25T01:30:48.043Z,6.18
2023-04-25T01:31:48.133Z,6.18
2023-04-25T01:32:48.078Z,6.17
2023-04-25T01:33:48.245Z,6.17
2023-04-25T01:34:48.085Z,6.16
2023-04-25T01:35:48.085Z,6.16
2023-04-25T01:36:47.967Z,6.16
2023-04-25T01:37:48.086Z,6.15
2023-04-25T01:38:47.955Z,6.15
2023-04-25T01:39:47.917Z,6.14
2023-04-25T01:40:47.928Z,6.13
2023-04-25T01:41:47.894Z,6.12
2023-04-25T01:42:47.894Z,6.10
2023-04-25T01:43:48.053Z,6.08
2023-04-25T01:44:48.106Z,6.07
2023-04-25T01:45:48.117Z,6.05
2023-04-25T01:46:48.113Z,6.04
2023-04-25T01:47:48.123Z,6.03
2023-04-25T01:48:47.834Z,6.02
2023-04-25T01:49:48.092Z,6.01
2023-04-25T01:50:47.801Z,5.99
2023-04-25T01:51:47.767Z,5.98
2023-04-25T01:52:47.781Z,5.97
2023-04-25T01:53:47.896Z,5.95
2023-04-25T01:54:47.777Z,5.93
2023-04-25T01:55:47.729Z,5.91
2023-04-25T01:56:47.734Z,5.89
2023-04-25T01:57:47.699Z,5.87
2023-04-25T01:58:47.706Z,5.85
2023-04-25T01:59:47.705Z,5.83
2023-04-25T02:00:47.672Z,5.82
2023-04-25T02:01:47.826Z,5.80
2023-04-25T02:02:48.005Z,5.78
2023-04-25T02:03:47.827Z,5.76
2023-04-25T02:04:47.784Z,5.74
2023-04-25T02:05:47.617Z,5.72
2023-04-25T02:06:47.609Z,5.69
2023-04-25T02:07:47.685Z,5.66
2023-04-25T02:08:47.624Z,5.63
2023-04-25T02:09:47.579Z,5.61
2023-04-25T02:10:47.632Z,5.59
2023-04-25T02:11:47.533Z,5.57
2023-04-25T02:12:47.557Z,5.56
2023-04-25T02:13:47.542Z,5.56
2023-04-25T02:14:47.523Z,5.56
2023-04-25T02:15:47.562Z,5.55
2023-04-25T02:16:47.620Z,5.55
2023-04-25T02:17:47.527Z,5.54
2023-04-25T02:18:47.478Z,5.52
2023-04-25T02:19:47.454Z,5.51
2023-04-25T02:20:47.464Z,5.50
2023-04-25T02:21:47.424Z,5.48
2023-04-25T02:22:47.428Z,5.47
2023-04-25T02:23:47.392Z,5.44
2023-04-25T02:24:47.400Z,5.42
2023-04-25T02:25:47.379Z,5.41
2023-04-25T02:26:47.504Z,5.40
2023-04-25T02:27:47.352Z,5.39
2023-04-25T02:28:47.350Z,5.38
2023-04-25T02:29:47.337Z,5.38
2023-04-25T02:30:47.326Z,5.38
2023-04-25T02:31:47.416Z,5.39
2023-04-25T02:32:47.321Z,5.39
2023-04-25T02:33:47.306Z,5.39
2023-04-25T02:34:47.281Z,5.39
2023-04-25T02:35:47.251Z,5.39
2023-04-25T02:36:47.280Z,5.37
2023-04-25T02:37:47.229Z,5.36
2023-04-25T02:38:47.245Z,5.34
2023-04-25T02:39:47.213Z,5.31
2023-04-25T02:40:47.218Z,5.29
2023-04-25T02:41:47.500Z,5.27
2023-04-25T02:42:47.197Z,5.26
2023-04-25T02:43:47.169Z,5.25
2023-04-25T02:44:47.162Z,5.24
2023-04-25T02:45:47.145Z,5.23
2023-04-25T02:46:47.194Z,5.21
2023-04-25T02:47:47.157Z,5.19
2023-04-25T02:48:47.155Z,5.17
2023-04-25T02:49:47.101Z,5.14
2023-04-25T02:50:47.323Z,5.12
2023-04-25T02:51:47.078Z,5.10
2023-04-25T02:52:47.206Z,5.08
2023-04-25T02:53:47.514Z,5.06
2023-04-25T02:54:47.050Z,5.05
2023-04-25T02:55:47.046Z,5.05
2023-04-25T02:56:47.510Z,5.04
2023-04-25T02:57:47.508Z,5.05
2023-04-25T02:58:47.502Z,5.05
2023-04-25T02:59:47.144Z,5.04
2023-04-25T03:00:47.027Z,5.03
2023-04-25T03:01:46.970Z,5.02
2023-04-25T03:02:47.071Z,5.01
2023-04-25T03:03:47.018Z,5.01
2023-04-25T03:04:47.053Z,5.01
2023-04-25T03:05:47.056Z,5.01
2023-04-25T03:06:47.097Z,5.01
2023-04-25T03:07:46.912Z,5.01
2023-04-25T03:08:47.167Z,5.02
2023-04-25T03:09:47.200Z,5.03
2023-04-25T03:10:46.873Z,5.03
2023-04-25T03:11:46.850Z,5.04
2023-04-25T03:12:46.877Z,5.04
2023-04-25T03:13:46.821Z,5.05
2023-04-25T03:14:46.890Z,5.05
2023-04-25T03:15:46.805Z,5.04
2023-04-25T03:16:46.852Z,5.04
2023-04-25T03:17:46.806Z,5.04
2023-04-25T03:18:46.797Z,5.04
2023-04-25T03:19:46.743Z,5.04
2023-04-25T03:20:46.834Z,5.03
2023-04-25T03:21:46.725Z,5.02
2023-04-25T03:22:46.755Z,5.01
2023-04-25T03:23:46.710Z,5.01
2023-04-25T03:24:46.714Z,5.00
2023-04-25T03:25:46.681Z,5.00
2023-04-25T03:26:46.686Z,4.99
2023-04-25T03:27:46.655Z,4.98
2023-04-25T03:28:46.672Z,4.97
2023-04-25T03:29:46.644Z,4.96
2023-04-25T03:30:46.634Z,4.95
2023-04-25T03:31:46.661Z,4.95
2023-04-25T03:32:46.662Z,4.96
2023-04-25T03:33:46.598Z,4.96
2023-04-25T03:34:46.617Z,4.96
2023-04-25T03:35:46.567Z,4.96
2023-04-25T03:36:46.662Z,4.96
2023-04-25T03:37:46.629Z,4.96
2023-04-25T03:38:46.561Z,4.96
2023-04-25T03:39:46.606Z,4.96
2023-04-25T03:40:46.526Z,4.97
2023-04-25T03:41:46.496Z,4.97
2023-04-25T03:42:46.498Z,4.98
2023-04-25T03:43:46.477Z,4.98
2023-04-25T03:44:46.803Z,4.99
2023-04-25T03:45:46.484Z,5.00
2023-04-25T03:46:46.449Z,5.01
2023-04-25T03:47:46.472Z,5.01
2023-04-25T03:48:46.825Z,5.02
2023-04-25T03:49:46.424Z,5.03
2023-04-25T03:50:46.415Z,5.05
2023-04-25T03:51:46.401Z,5.05
2023-04-25T03:52:46.396Z,5.06
2023-04-25T03:53:46.389Z,5.07
2023-04-25T03:54:46.537Z,5.08
2023-04-25T03:55:46.352Z,5.09
2023-04-25T03:56:46.329Z,5.10
2023-04-25T03:57:46.324Z,5.11
2023-04-25T03:58:46.314Z,5.12
2023-04-25T03:59:46.293Z,5.13
2023-04-25T04:00:46.344Z,5.14
2023-04-25T04:01:46.293Z,5.16
2023-04-25T04:02:46.409Z,5.17
2023-04-25T04:03:46.389Z,5.18
2023-04-25T04:04:46.606Z,5.19
2023-04-25T04:05:46.310Z,5.20
2023-04-25T04:06:46.227Z,5.20
2023-04-25T04:07:46.214Z,5.21
2023-04-25T04:08:46.199Z,5.21
2023-04-25T04:09:46.196Z,5.22
2023-04-25T04:10:46.183Z,5.23
2023-04-25T04:11:46.173Z,5.23
2023-04-25T04:12:46.138Z,5.23
2023-04-25T04:13:46.140Z,5.24
2023-04-25T04:14:46.121Z,5.24
2023-04-25T04:15:46.148Z,5.24
2023-04-25T04:16:46.108Z,5.25
2023-04-25T04:17:46.149Z,5.25
2023-04-25T04:18:46.098Z,5.26
2023-04-25T04:19:46.086Z,5.27
2023-04-25T04:20:46.049Z,5.27
2023-04-25T04:21:46.080Z,5.28
2023-04-25T04:22:46.053Z,5.29
2023-04-25T04:23:46.037Z,5.29
2023-04-25T04:24:46.118Z,5.29
2023-04-25T04:25:46.004Z,5.29
2023-04-25T04:26:45.975Z,5.30
2023-04-25T04:27:46.093Z,5.30
2023-04-25T04:28:47.117Z,5.31
2023-04-25T04:29:45.967Z,5.33
2023-04-25T04:30:46.474Z,5.34
2023-04-25T04:31:45.984Z,5.35
2023-04-25T04:32:46.015Z,5.36
2023-04-25T04:33:45.952Z,5.37
2023-04-25T04:34:45.955Z,5.38
2023-04-25T04:35:45.887Z,5.40
2023-04-25T04:36:45.860Z,5.42
2023-04-25T04:37:46.007Z,5.43
2023-04-25T04:38:45.848Z,5.45
2023-04-25T04:39:45.846Z,5.47
2023-04-25T04:40:45.929Z,5.49
2023-04-25T04:41:45.833Z,5.50
2023-04-25T04:42:45.814Z,5.52
2023-04-25T04:43:45.798Z,5.54
2023-04-25T04:44:45.799Z,5.55
2023-04-25T04:45:45.786Z,5.57
2023-04-25T04:46:45.804Z,5.58
2023-04-25T04:47:45.821Z,5.59
2023-04-25T04:48:45.848Z,5.60
2023-04-25T04:49:45.754Z,5.61
2023-04-25T04:50:45.712Z,5.62
2023-04-25T04:51:45.813Z,5.64
2023-04-25T04:52:45.710Z,5.65
2023-04-25T04:53:45.686Z,5.66
2023-04-25T04:54:45.661Z,5.67
2023-04-25T04:55:45.669Z,5.68
2023-04-25T04:56:45.849Z,5.69
2023-04-25T04:57:45.664Z,5.70
2023-04-25T04:58:45.855Z,5.72
2023-04-25T04:59:45.623Z,5.73
2023-04-25T05:00:46.241Z,5.75
2023-04-25T05:01:45.596Z,5.77
2023-04-25T05:02:45.699Z,5.79
2023-04-25T05:03:45.740Z,5.81
2023-04-25T05:04:45.644Z,5.83
2023-04-25T05:05:45.559Z,5.86
2023-04-25T05:06:47.502Z,5.88
2023-04-25T05:07:45.535Z,5.91
2023-04-25T05:08:45.487Z,5.94
2023-04-25T05:09:45.502Z,5.98
2023-04-25T05:10:45.479Z,6.02
2023-04-25T05:11:45.483Z,6.06
2023-04-25T05:12:45.872Z,6.11
2023-04-25T05:13:45.463Z,6.17
2023-04-25T05:14:45.870Z,6.26
2023-04-25T05:15:45.440Z,6.36
2023-04-25T05:16:45.436Z,6.46
2023-04-25T05:17:45.444Z,6.57
2023-04-25T05:18:45.388Z,6.66
2023-04-25T05:19:45.373Z,6.73
2023-04-25T05:20:45.503Z,6.78
2023-04-25T05:21:45.356Z,6.82
2023-04-25T05:22:45.344Z,6.86
2023-04-25T05:23:45.336Z,6.91
2023-04-25T05:24:45.321Z,6.97
2023-04-25T05:25:45.311Z,7.02
2023-04-25T05:26:45.285Z,7.09
2023-04-25T05:27:45.329Z,7.15
2023-04-25T05:28:45.531Z,7.20
2023-04-25T05:29:45.267Z,7.24
2023-04-25T05:30:45.235Z,7.28
2023-04-25T05:31:45.243Z,7.32
2023-04-25T05:32:45.230Z,7.38
2023-04-25T05:33:45.244Z,7.44
2023-04-25T05:34:45.217Z,7.48
2023-04-25T05:35:45.199Z,7.50
2023-04-25T05:36:45.819Z,7.50
2023-04-25T05:37:45.187Z,7.50
2023-04-25T05:38:45.154Z,7.49
2023-04-25T05:39:45.922Z,7.48
2023-04-25T05:40:45.123Z,7.46
2023-04-25T05:41:45.123Z,7.43
2023-04-25T05:42:45.123Z,7.41
2023-04-25T05:43:45.586Z,7.37
2023-04-25T05:44:45.903Z,7.33
2023-04-25T05:45:45.900Z,7.29
2023-04-25T05:46:45.838Z,7.26
2023-04-25T05:47:45.894Z,7.23
2023-04-25T05:48:45.027Z,7.20
2023-04-25T05:49:45.916Z,7.16
2023-04-25T05:50:45.085Z,7.13
2023-04-25T05:51:45.812Z,7.10
2023-04-25T05:52:44.978Z,7.08
2023-04-25T05:53:45.002Z,7.07
2023-04-25T05:54:45.032Z,7.06
2023-04-25T05:55:45.001Z,7.04
2023-04-25T05:56:45.020Z,7.04
2023-04-25T05:57:45.065Z,7.03
2023-04-25T05:58:44.909Z,7.03
2023-04-25T05:59:45.116Z,7.03
2023-04-25T06:00:44.911Z,7.02
2023-04-25T06:01:44.892Z,7.02
2023-04-25T06:02:44.988Z,7.02
2023-04-25T06:03:45.068Z,7.02
2023-04-25T06:04:44.937Z,7.02
2023-04-25T06:05:44.873Z,7.02
2023-04-25T06:06:44.812Z,7.02
2023-04-25T06:07:44.915Z,7.03
2023-04-25T06:08:44.902Z,7.05
2023-04-25T06:09:44.790Z,7.06
2023-04-25T06:10:44.779Z,7.06
2023-04-25T06:11:44.776Z,7.08
2023-04-25T06:12:44.745Z,7.09
2023-04-25T06:13:44.755Z,7.11
2023-04-25T06:14:44.862Z,7.13
2023-04-25T06:15:44.757Z,7.14
2023-04-25T06:16:44.912Z,7.15
2023-04-25T06:17:44.726Z,7.17
2023-04-25T06:18:44.664Z,7.18
2023-04-25T06:19:44.697Z,7.19
2023-04-25T06:20:44.659Z,7.20
2023-04-25T06:21:44.673Z,7.20
2023-04-25T06:22:44.630Z,7.20
2023-04-25T06:23:44.646Z,7.19
2023-04-25T06:24:44.937Z,7.20
2023-04-25T06:25:44.616Z,7.21
2023-04-25T06:26:45.467Z,7.22
2023-04-25T06:27:44.605Z,7.22
2023-04-25T06:28:44.553Z,7.22
2023-04-25T06:29:44.569Z,7.22
2023-04-25T06:30:44.551Z,7.22
2023-04-25T06:31:44.811Z,7.23
2023-04-25T06:32:44.974Z,7.23
2023-04-25T06:33:44.521Z,7.23
2023-04-25T06:34:44.487Z,7.22
2023-04-25T06:35:44.519Z,7.21
2023-04-25T06:36:44.464Z,7.21
2023-04-25T06:37:44.464Z,7.21
2023-04-25T06:38:44.437Z,7.21
2023-04-25T06:39:44.506Z,7.22
2023-04-25T06:40:44.950Z,7.23
2023-04-25T06:41:44.445Z,7.25
2023-04-25T06:42:44.413Z,7.25
2023-04-25T06:43:44.388Z,7.24
2023-04-25T06:44:44.402Z,7.24
2023-04-25T06:45:46.325Z,7.25
2023-04-25T06:46:44.388Z,7.26
2023-04-25T06:47:44.426Z,7.27
2023-04-25T06:48:44.407Z,7.29
2023-04-25T06:49:44.349Z,7.31
2023-04-25T06:50:44.321Z,7.32
2023-04-25T06:51:44.329Z,7.34
2023-04-25T06:52:44.289Z,7.38
2023-04-25T06:53:44.280Z,7.42
2023-04-25T06:54:44.261Z,7.44
2023-04-25T06:55:44.258Z,7.48
2023-04-25T06:56:44.697Z,7.52
2023-04-25T06:57:44.245Z,7.56
2023-04-25T06:58:44.240Z,7.61
2023-04-25T06:59:44.210Z,7.69
2023-04-25T07:00:44.257Z,7.76
2023-04-25T07:01:44.208Z,7.80
2023-04-25T07:02:44.267Z,7.84
2023-04-25T07:03:44.282Z,7.87
2023-04-25T07:04:45.061Z,7.88
2023-04-25T07:05:44.955Z,7.88
2023-04-25T07:06:44.159Z,7.88
2023-04-25T07:07:44.959Z,7.88
2023-04-25T07:08:44.121Z,7.88
2023-04-25T07:09:44.980Z,7.87
2023-04-25T07:10:44.103Z,7.87
2023-04-25T07:11:44.116Z,7.87
2023-04-25T07:12:44.091Z,7.89
2023-04-25T07:13:44.085Z,7.91
2023-04-25T07:14:44.043Z,7.94
2023-04-25T07:15:44.054Z,7.97
2023-04-25T07:16:44.059Z,8.00
2023-04-25T07:17:44.071Z,8.05
2023-04-25T07:18:43.988Z,8.09
2023-04-25T07:19:44.011Z,8.14
2023-04-25T07:20:43.955Z,8.19
2023-04-25T07:21:43.977Z,8.24
2023-04-25T07:22:43.963Z,8.30
2023-04-25T07:23:43.944Z,8.35
2023-04-25T07:24:43.984Z,8.39
2023-04-25T07:25:43.982Z,8.44
2023-04-25T07:26:43.983Z,8.50
2023-04-25T07:27:43.919Z,8.56
2023-04-25T07:28:43.877Z,8.62
2023-04-25T07:29:43.919Z,8.66
2023-04-25T07:30:43.844Z,8.66
2023-04-25T07:31:43.884Z,8.67
2023-04-25T07:32:43.827Z,8.70
2023-04-25T07:33:43.816Z,8.76
2023-04-25T07:34:44.213Z,8.82
2023-04-25T07:35:44.166Z,8.88
2023-04-25T07:36:43.779Z,8.94
2023-04-25T07:37:43.806Z,8.99
2023-04-25T07:38:43.749Z,9.02
2023-04-25T07:39:44.320Z,9.05
2023-04-25T07:40:44.048Z,9.10
2023-04-25T07:41:44.388Z,9.17
2023-04-25T07:42:44.389Z,9.25
2023-04-25T07:43:44.462Z,9.35
2023-04-25T07:44:44.499Z,9.46
2023-04-25T07:45:43.785Z,9.57
2023-04-25T07:46:43.650Z,9.71
2023-04-25T07:47:44.028Z,9.87
2023-04-25T07:48:43.643Z,10.07
2023-04-25T07:49:43.630Z,10.25
2023-04-25T07:50:43.668Z,10.39
2023-04-25T07:51:43.624Z,10.48
2023-04-25T07:52:43.607Z,10.51
2023-04-25T07:53:43.586Z,10.51
2023-04-25T07:54:43.568Z,10.49
2023-04-25T07:55:43.562Z,10.46
2023-04-25T07:56:52.190Z,10.46
2023-04-25T07:57:44.545Z,10.46
2023-04-25T07:58:43.524Z,10.48
2023-04-25T07:59:43.517Z,10.50
2023-04-25T08:00:44.650Z,10.50
2023-04-25T08:01:44.609Z,10.49
2023-04-25T08:02:44.498Z,10.47
2023-04-25T08:03:44.147Z,10.41
2023-04-25T08:04:44.402Z,10.34
2023-04-25T08:05:43.631Z,10.27
2023-04-25T08:06:43.553Z,10.20
2023-04-25T08:07:43.535Z,10.13
2023-04-25T08:08:43.430Z,10.06
2023-04-25T08:09:43.415Z,10.00
2023-04-25T08:10:43.406Z,9.95
2023-04-25T08:11:43.395Z,9.87
2023-04-25T08:12:43.377Z,9.78
2023-04-25T08:13:43.338Z,9.70
2023-04-25T08:14:43.347Z,9.62
2023-04-25T08:15:43.397Z,9.54
2023-04-25T08:16:43.339Z,9.44
2023-04-25T08:17:43.734Z,9.35
2023-04-25T08:18:43.315Z,9.31
2023-04-25T08:19:43.789Z,9.30
2023-04-25T08:20:43.278Z,9.31
2023-04-25T08:21:43.279Z,9.33
2023-04-25T08:22:43.249Z,9.36
2023-04-25T08:23:43.938Z,9.39
2023-04-25T08:24:43.993Z,9.42
2023-04-25T08:25:43.205Z,9.43
2023-04-25T08:26:43.201Z,9.41
2023-04-25T08:27:44.005Z,9.40
2023-04-25T08:28:43.220Z,9.40
2023-04-25T08:29:43.190Z,9.39
2023-04-25T08:30:43.160Z,9.38
2023-04-25T08:31:43.248Z,9.36
2023-04-25T08:32:43.201Z,9.33
2023-04-25T08:33:43.192Z,9.28
2023-04-25T08:34:43.146Z,9.24
2023-04-25T08:35:43.103Z,9.21
2023-04-25T08:36:43.140Z,9.18
2023-04-25T08:37:43.087Z,9.15
2023-04-25T08:38:43.085Z,9.12
2023-04-25T08:39:43.103Z,9.09
2023-04-25T08:40:43.035Z,9.06
2023-04-25T08:41:43.098Z,9.03
2023-04-25T08:42:43.052Z,8.99
2023-04-25T08:43:43.011Z,8.95
2023-04-25T08:44:43.015Z,8.92
2023-04-25T08:45:42.968Z,8.89
2023-04-25T08:46:42.981Z,8.88
2023-04-25T08:47:42.956Z,8.86
2023-04-25T08:48:42.939Z,8.86
2023-04-25T08:49:42.923Z,8.84
2023-04-25T08:50:42.924Z,8.82
2023-04-25T08:51:42.902Z,8.79
2023-04-25T08:52:43.025Z,8.75
2023-04-25T08:53:43.389Z,8.73
2023-04-25T08:54:43.109Z,8.72
2023-04-25T08:55:42.897Z,8.73
2023-04-25T08:56:42.859Z,8.75
2023-04-25T08:57:42.829Z,8.79
2023-04-25T08:58:42.818Z,8.84
2023-04-25T08:59:42.799Z,8.90
2023-04-25T09:00:42.979Z,8.94
2023-04-25T09:01:42.807Z,8.97
2023-04-25T09:02:42.879Z,8.99
2023-04-25T09:03:42.885Z,9.00
2023-04-25T09:04:42.736Z,9.02
2023-04-25T09:05:44.227Z,9.04
2023-04-25T09:06:42.740Z,9.04
2023-04-25T09:07:42.698Z,9.03
2023-04-25T09:08:42.713Z,9.02
2023-04-25T09:09:42.683Z,9.00
2023-04-25T09:10:42.692Z,8.99
2023-04-25T09:11:42.664Z,8.98
2023-04-25T09:12:42.659Z,8.99
2023-04-25T09:13:42.648Z,8.99
2023-04-25T09:14:42.632Z,8.98
2023-04-25T09:15:42.623Z,8.95
2023-04-25T09:16:42.630Z,8.93
2023-04-25T09:17:42.616Z,8.91
2023-04-25T09:18:48.572Z,8.90
2023-04-25T09:19:43.563Z,8.90
2023-04-25T09:20:59.620Z,8.90
2023-04-25T09:21:43.541Z,8.91
2023-04-25T09:22:42.539Z,8.92
2023-04-25T09:23:42.539Z,8.92
2023-04-25T09:24:42.523Z,8.93
2023-04-25T09:25:42.507Z,8.94
2023-04-25T09:26:42.500Z,8.96
2023-04-25T09:27:42.480Z,8.97
2023-04-25T09:28:42.486Z,8.99
2023-04-25T09:29:42.447Z,9.00
2023-04-25T09:30:42.469Z,9.01
2023-04-25T09:31:42.478Z,9.01
2023-04-25T09:32:42.441Z,9.01
2023-04-25T09:33:42.438Z,9.01
2023-04-25T09:34:42.420Z,9.01
2023-04-25T09:35:42.404Z,9.02
2023-04-25T09:36:42.394Z,9.03
2023-04-25T09:37:42.355Z,9.03
2023-04-25T09:38:42.358Z,9.01
2023-04-25T09:39:42.335Z,8.99
2023-04-25T09:40:43.493Z,8.98
2023-04-25T09:41:42.322Z,8.96
2023-04-25T09:42:42.307Z,8.94
2023-04-25T09:43:42.276Z,8.92
2023-04-25T09:44:42.282Z,8.91
2023-04-25T09:45:42.317Z,8.91
2023-04-25T09:46:42.309Z,8.91
2023-04-25T09:47:43.117Z,8.93
2023-04-25T09:48:42.242Z,8.94
2023-04-25T09:49:42.231Z,8.97
2023-04-25T09:50:42.225Z,9.00
2023-04-25T09:51:42.244Z,9.02
2023-04-25T09:52:42.201Z,9.04
2023-04-25T09:53:42.257Z,9.06
2023-04-25T09:54:42.192Z,9.08
2023-04-25T09:55:42.157Z,9.10
2023-04-25T09:56:42.155Z,9.14
2023-04-25T09:57:42.135Z,9.20
2023-04-25T09:58:42.137Z,9.26
2023-04-25T09:59:42.098Z,9.34
2023-04-25T10:00:42.107Z,9.42
2023-04-25T10:01:42.413Z,9.51
2023-04-25T10:02:42.160Z,9.61
2023-04-25T10:03:42.212Z,9.72
2023-04-25T10:04:42.087Z,9.83
2023-04-25T10:05:42.029Z,9.92
2023-04-25T10:06:42.038Z,9.98
2023-04-25T10:07:42.045Z,10.02
2023-04-25T10:08:42.017Z,10.05
2023-04-25T10:09:42.002Z,10.06
2023-04-25T10:10:41.986Z,10.06
2023-04-25T10:11:41.992Z,10.06
2023-04-25T10:12:41.977Z,10.05
2023-04-25T10:13:41.934Z,10.04
2023-04-25T10:14:42.006Z,10.01
2023-04-25T10:15:41.940Z,9.96
2023-04-25T10:16:41.914Z,9.90
2023-04-25T10:17:41.925Z,9.83
2023-04-25T10:18:41.892Z,9.77
2023-04-25T10:19:42.004Z,9.72
2023-04-25T10:20:41.863Z,9.67
2023-04-25T10:21:41.869Z,9.64
2023-04-25T10:22:41.864Z,9.63
2023-04-25T10:23:41.819Z,9.62
2023-04-25T10:24:41.825Z,9.62
2023-04-25T10:25:41.799Z,9.61
2023-04-25T10:26:41.799Z,9.60
2023-04-25T10:27:41.784Z,9.61
2023-04-25T10:28:41.781Z,9.61
2023-04-25T10:29:41.750Z,9.61
2023-04-25T10:30:41.857Z,9.61
2023-04-25T10:31:41.865Z,9.61
2023-04-25T10:32:41.743Z,9.60
2023-04-25T10:33:41.703Z,9.60
2023-04-25T10:34:41.719Z,9.61
2023-04-25T10:35:41.679Z,9.60
2023-04-25T10:36:41.680Z,9.58
2023-04-25T10:37:41.662Z,9.56
2023-04-25T10:38:41.699Z,9.56
2023-04-25T10:39:41.637Z,9.57
2023-04-25T10:40:41.635Z,9.58
2023-04-25T10:41:41.609Z,9.60
2023-04-25T10:42:41.625Z,9.59
2023-04-25T10:43:41.617Z,9.55
2023-04-25T10:44:41.587Z,9.51
2023-04-25T10:45:41.555Z,9.47
2023-04-25T10:46:41.598Z,9.45
2023-04-25T10:47:41.647Z,9.44
2023-04-25T10:48:41.558Z,9.43
2023-04-25T10:49:41.507Z,9.43
2023-04-25T10:50:41.508Z,9.42
2023-04-25T10:51:54.968Z,9.41
2023-04-25T10:52:42.489Z,9.40
2023-04-25T10:53:41.486Z,9.40
2023-04-25T10:54:41.467Z,9.38
2023-04-25T10:55:41.445Z,9.37
2023-04-25T10:56:41.450Z,9.35
2023-04-25T10:57:41.441Z,9.33
2023-04-25T10:58:41.422Z,9.31
2023-04-25T10:59:41.400Z,9.29
2023-04-25T11:00:48.208Z,9.26
2023-04-25T11:01:42.539Z,9.22
2023-04-25T11:02:41.489Z,9.17
2023-04-25T11:03:41.469Z,9.13
2023-04-25T11:04:41.587Z,9.09
2023-04-25T11:05:55.023Z,9.06
2023-04-25T11:06:42.328Z,9.02
2023-04-25T11:07:41.597Z,9.00
2023-04-25T11:08:41.314Z,8.97
2023-04-25T11:09:41.368Z,8.95
2023-04-25T11:10:41.281Z,8.92
2023-04-25T11:11:41.256Z,8.91
2023-04-25T11:12:41.266Z,8.91
2023-04-25T11:13:41.237Z,8.91
2023-04-25T11:15:41.403Z,8.89
2023-04-25T11:16:41.282Z,8.89
2023-04-25T11:17:41.248Z,8.89
2023-04-25T11:18:41.194Z,8.89
2023-04-25T11:19:41.157Z,8.89
2023-04-25T11:20:41.186Z,8.90
2023-04-25T11:21:41.139Z,8.92
2023-04-25T11:22:41.135Z,8.95
2023-04-25T11:23:41.152Z,8.98
2023-04-25T11:24:41.124Z,9.01
2023-04-25T11:25:41.114Z,9.04
2023-04-25T11:26:41.092Z,9.08
2023-04-25T11:27:41.063Z,9.13
2023-04-25T11:28:41.071Z,9.22
2023-04-25T11:29:41.059Z,9.32
2023-04-25T11:30:41.094Z,9.42
2023-04-25T11:31:41.091Z,9.49
2023-04-25T11:32:41.119Z,9.55
2023-04-25T11:33:40.988Z,9.61
2023-04-25T11:34:41.054Z,9.68
2023-04-25T11:35:40.991Z,9.75
2023-04-25T11:36:40.981Z,9.81
2023-04-25T11:37:41.008Z,9.87
2023-04-25T11:38:40.968Z,9.92
2023-04-25T11:39:40.932Z,9.97
2023-04-25T11:40:40.949Z,10.02
2023-04-25T11:41:41.561Z,10.04
2023-04-25T11:42:40.919Z,10.03
2023-04-25T11:43:43.290Z,9.98
2023-04-25T11:44:40.892Z,9.90
2023-04-25T11:45:40.933Z,9.83
2023-04-25T11:46:41.175Z,9.78
2023-04-25T11:47:40.921Z,9.74
2023-04-25T11:48:40.842Z,9.70
2023-04-25T11:49:40.813Z,9.68
2023-04-25T11:50:40.840Z,9.66
2023-04-25T11:51:40.902Z,9.65
2023-04-25T11:52:40.786Z,9.64
2023-04-25T11:53:40.760Z,9.64
2023-04-25T11:54:40.780Z,9.64
2023-04-25T11:55:40.758Z,9.64
2023-04-25T11:56:40.741Z,9.64
2023-04-25T11:57:40.713Z,9.65
2023-04-25T11:58:40.713Z,9.65
2023-04-25T11:59:40.706Z,9.65
2023-04-25T12:00:40.709Z,9.64
2023-04-25T12:01:41.739Z,9.63
2023-04-25T12:02:40.790Z,9.62
2023-04-25T12:03:40.811Z,9.62
2023-04-25T12:04:40.958Z,9.63
2023-04-25T12:05:40.789Z,9.64
2023-04-25T12:06:41.153Z,9.65
2023-04-25T12:07:40.601Z,9.65
2023-04-25T12:08:40.589Z,9.64
2023-04-25T12:09:40.578Z,9.62
2023-04-25T12:10:40.622Z,9.59
2023-04-25T12:11:40.964Z,9.56
2023-04-25T12:12:40.561Z,9.52
2023-04-25T12:13:40.524Z,9.50
2023-04-25T12:14:40.542Z,9.49
2023-04-25T12:15:40.510Z,9.46
2023-04-25T12:16:40.593Z,9.44
2023-04-25T12:17:40.496Z,9.43
2023-04-25T12:18:42.620Z,9.42
2023-04-25T12:19:40.461Z,9.41
2023-04-25T12:20:40.457Z,9.40
2023-04-25T12:21:53.998Z,9.39
2023-04-25T12:22:41.438Z,9.39
2023-04-25T12:23:40.425Z,9.39
2023-04-25T12:24:40.965Z,9.39
2023-04-25T12:25:41.269Z,9.38
2023-04-25T12:26:40.420Z,9.37
2023-04-25T12:27:40.386Z,9.36
2023-04-25T12:28:40.423Z,9.34
2023-04-25T12:29:49.597Z,9.32
2023-04-25T12:30:42.426Z,9.30
2023-04-25T12:31:40.506Z,9.28
2023-04-25T12:32:40.521Z,9.26
2023-04-25T12:33:40.483Z,9.25
2023-04-25T12:34:40.282Z,9.23
2023-04-25T12:35:42.466Z,9.21
2023-04-25T12:36:40.276Z,9.20
2023-04-25T12:37:40.277Z,9.19
2023-04-25T12:38:40.249Z,9.17
2023-04-25T12:39:40.244Z,9.16
2023-04-25T12:40:40.221Z,9.15
2023-04-25T12:41:40.485Z,9.12
2023-04-25T12:42:40.192Z,9.09
2023-04-25T12:43:40.199Z,9.05
2023-04-25T12:44:40.167Z,9.02
2023-04-25T12:45:40.369Z,8.99
2023-04-25T12:46:40.200Z,8.96
2023-04-25T12:47:40.177Z,8.93
2023-04-25T12:48:40.222Z,8.92
2023-04-25T12:49:40.167Z,8.90
2023-04-25T12:50:40.088Z,8.89
2023-04-25T12:51:40.115Z,8.89
2023-04-25T12:52:40.076Z,8.90
2023-04-25T12:53:40.220Z,8.91
2023-04-25T12:54:40.056Z,8.93
2023-04-25T12:55:40.053Z,8.97
2023-04-25T12:56:40.057Z,9.01
2023-04-25T12:57:40.031Z,9.06
2023-04-25T12:58:40.010Z,9.12
2023-04-25T12:59:40.009Z,9.17
2023-04-25T13:00:40.057Z,9.24
2023-04-25T13:01:40.917Z,9.31
2023-04-25T13:02:40.087Z,9.38
2023-04-25T13:03:40.193Z,9.45
2023-04-25T13:04:40.035Z,9.51
2023-04-25T13:05:39.981Z,9.57
2023-04-25T13:06:40.243Z,9.61
2023-04-25T13:07:39.929Z,9.64
2023-04-25T13:08:39.896Z,9.66
2023-04-25T13:09:39.912Z,9.69
2023-04-25T13:10:39.967Z,9.72
2023-04-25T13:11:39.870Z,9.76
2023-04-25T13:12:39.889Z,9.80
2023-04-25T13:13:39.854Z,9.84
2023-04-25T13:14:39.811Z,9.88
2023-04-25T13:15:39.815Z,9.90
2023-04-25T13:16:40.267Z,9.91
2023-04-25T13:17:40.024Z,9.91
2023-04-25T13:18:40.260Z,9.92